Tiempo atmosférico en la estación meteorológica de Jaraicejo, Cáceres (510 m.)



Fecha
DESCASC
Temp. máxima en grados centígrados (hora)
DESCASC
Temp. mínima en grados centígrados (hora)
DESCASC
Temp. media en grados centígrados
DESCASC
Racha de viento máxima en m/sg (hora)
DESCASC
Velocidad máxima media en intervalos de 10 minutos(hora)
DESCASC
Precipitaciones diarias en mm
DESCASC
Precipitaciones de 00:00 a 06:00 en mm
DESCASC
Precipitaciones de 06:00 a 12:00 en mm
DESCASC
Precipitaciones de 12:00 a 18:00 en mm
DESCASC
Precipitaciones de 18:00 a 24:00 en mm
DESCASC
30-11-2020 14.5 (14:50) 9.2 (04:40) 11.8 14.72 (12:20) 11.39 (13:40) 1.2 1.2 0 0 0
29-11-2020 12.9 (13:40) 9.2 (00:00) 11 10.28 (19:10) 8.33 (18:30) 20.4 8 0.4 0 12
28-11-2020 12.1 (14:20) 6.9 (00:00) 9.5 6.94 (23:20) 4.17 (23:20) 0 0 0 0 0
27-11-2020 12 (12:00) 8.4 (00:00) 10.2 17.22 (11:50) 11.94 (11:50) 0.2 0 0.2 0 0
26-11-2020 10.7 (15:20) 8.4 (00:00) 9.5 9.44 (03:10) 5.28 (03:10) 7.6 1.6 3.6 2.4 0
25-11-2020 11.3 (11:40) 8.5 (00:00) 9.9 9.17 (12:20) 5 (18:10) 3.2 0 0 3.2 0
24-11-2020 14.6 (15:50) 8.4 (00:00) 11.5 5 (15:10) 3.33 (15:20) 0 0 0 0 0
23-11-2020 17.2 (15:10) 7.7 (00:00) 12.5 5.83 (09:20) 5 (07:20) 0 0 0 0 0
22-11-2020 17.3 (15:20) 7.4 (00:00) 12.3 6.94 (05:10) 5.83 (05:10) 0 0 0 0 0
21-11-2020 17.1 (14:10) 8.1 (00:00) 12.6 10.28 (05:00) 8.61 (05:00) 0 0 0 0 0
20-11-2020 18.2 (14:50) 11 (00:00) 14.6 9.17 (02:40) 7.5 (02:50) 0 0 0 0 0
19-11-2020 21.7 (14:10) 9.2 (00:00) 15.5 8.89 (12:20) 6.39 (12:30) 0 0 0 0 0
18-11-2020 20 (13:00) 10.6 (00:00) 15.3 4.72 (23:50) 4.17 (23:50) 0 0 0 0 0
17-11-2020 19.8 (15:40) 10.1 (00:00) 14.9 4.44 (23:00) 3.33 (08:40) 0.2 0.2 0 0 0
16-11-2020 18.5 (16:00) 12.2 (00:00) 15.3 4.17 (13:40) 2.5 (22:20) 0 0 0 0 0
15-11-2020 18.6 (16:40) 13.1 (00:00) 15.9 7.5 (07:50) 4.44 (13:20) 0 0 0 0 0
14-11-2020 14.3 (02:20) 12.6 (00:00) 13.5 5.28 (05:20) 3.89 (08:20) 7.8 1.6 0.2 6 0
13-11-2020 15.9 (13:20) 9.7 (00:00) 12.8 5.28 (20:10) 4.17 (00:10) 0 0 0 0 0
12-11-2020 16.1 (15:50) 10.5 (00:00) 13.3 7.78 (14:20) 5.83 (17:30) 0 0 0 0 0
11-11-2020 18.2 (14:50) 9 (00:00) 13.6 5 (17:00) 4.44 (00:40) 0 0 0 0 0
10-11-2020 17.2 (15:40) 8.1 (00:00) 12.7 6.94 (14:30) 5 (14:30) 0.2 0 0.2 0 0
09-11-2020 15.9 (14:20) 10.2 (00:00) 13 4.17 (01:50) 2.5 (00:10) 13.8 11.2 0 2.6 0
08-11-2020 15.2 (16:40) 11.1 (00:00) 13.2 7.78 (09:10) 4.72 (08:10) 20.8 0 0 0 20.8
07-11-2020 16.3 (16:10) 10.9 (00:00) 13.6 10 (13:00) 6.67 (13:10) 7.6 7.6 0 0 0
06-11-2020 18 (15:40) 11.8 (00:00) 14.9 16.39 (09:40) 12.5 (09:40) 1.2 0 0.2 0.4 0.6
05-11-2020 13.9 (22:50) 9.6 (00:00) 11.8 15.83 (06:30) 12.22 (06:50) 27.4 3.2 1.8 22.4 0
04-11-2020 13.6 (00:00) 8.6 (00:00) 11.1 17.5 (21:30) 13.33 (21:20) 17.2 0 1.2 8 8
03-11-2020 19.1 (14:00) 13.5 (00:00) 16.3 10 (21:50) 7.5 (22:10) 0.2 0 0.2 0 0
02-11-2020 20.2 (14:20) 13.8 (00:00) 17 3.89 (16:30) 2.22 (00:10) 0 0 0 0 0

Gráficas

Temp. máximas Temp. mínimas Temp. medias Precipitaciones Rachas de viento máximas Velocidades máximas media en intervalos de 10 minutos

Datos horarios

Fecha y hora oficial Temperatura (ºC) Velocidad del viento (km/h) Dirección del viento Racha (km/h) Dirección de racha Precipitación (mm) Presión (hPa) Tendencia (hPa) Humedad (%)
2020-12-01 23:00:00 8.2 10 Este 15 Nordeste 0 -- -- 90
2020-12-01 22:00:00 10.1 7 Este 13 Sudeste 0 -- -- 87
2020-12-01 21:00:00 9.3 6 Este 9 Este 0 -- -- 88
2020-12-01 20:00:00 9.9 5 Nordeste 7 Norte 0 -- -- 86
2020-12-01 19:00:00 10 6 Norte 9 Norte 0 -- -- 84
2020-12-01 18:00:00 12 6 Norte 12 Noroeste 0 -- -- 76
2020-12-01 17:00:00 15.1 7 Norte 12 Oeste 0 -- -- 68
2020-12-01 16:00:00 16 6 Noroeste 15 Noroeste 0 -- -- 61
2020-12-01 15:00:00 16.4 7 Noroeste 15 Noroeste 0 -- -- 61
2020-12-01 14:00:00 16.2 9 Noroeste 15 Norte 0 -- -- 64
2020-12-01 13:00:00 15.6 5 Norte 9 Sudoeste 0 -- -- 68
2020-12-01 12:00:00 13.9 3 Oeste 8 Sudoeste 0 -- -- 77
2020-12-01 11:00:00 12.4 2 Sur 8 Este 0 -- -- 80
2020-12-01 10:00:00 11.6 5 Este 15 Nordeste 0 -- -- 82
2020-12-01 09:00:00 8.6 7 Este 20 Nordeste 0 -- -- 92
2020-12-01 08:00:00 7.2 11 Nordeste 14 Nordeste 0 -- -- 94
2020-12-01 07:00:00 7.9 5 Norte 8 Nordeste 0 -- -- 90
2020-12-01 06:00:00 8.4 2 Sudeste 14 Este 0 -- -- 90
2020-12-01 05:00:00 9.5 10 Este 15 Este 0 -- -- 86
2020-12-01 04:00:00 10.2 13 Este 18 Este 0 -- -- 84
2020-12-01 03:00:00 10.5 8 Nordeste 21 Este 0 -- -- 83
2020-12-01 02:00:00 11.2 14 Este 22 Este 0 -- -- 81
2020-12-01 01:00:00 11.2 16 Este 30 Nordeste 0 -- -- 81
2020-12-01 00:00:00 11.2 16 Nordeste 26 Nordeste 0 -- -- 81
2020-11-30 23:00:00 11.2 18 Nordeste 24 Nordeste 0 -- -- 82
2020-11-30 22:00:00 11.6 14 Este 31 Este 0 -- -- 79
2020-11-30 21:00:00 11.9 23 Nordeste 36 Este 0 -- -- 77
2020-11-30 20:00:00 12.3 30 Este 44 Este 0 -- -- 73
2020-11-30 19:00:00 12 34 Nordeste 44 Nordeste 0 -- -- 73
2020-11-30 18:00:00 12.2 30 Nordeste 38 Nordeste 0 -- -- 71
2020-11-30 17:00:00 13.9 24 Este 36 Este 0 -- -- 66
2020-11-30 16:00:00 14.2 26 Este 42 Nordeste 0 -- -- 69
2020-11-30 15:00:00 14.4 32 Nordeste 44 Nordeste 0 -- -- 67
2020-11-30 14:00:00 14.2 33 Nordeste 50 Nordeste 0 -- -- 68
2020-11-30 13:00:00 13.5 37 Nordeste 53 Nordeste 0 -- -- 71
2020-11-30 12:00:00 12.4 34 Nordeste 51 Nordeste 0 -- -- 73
2020-11-30 11:00:00 11.1 24 Este 45 Nordeste 0 -- -- 77
2020-11-30 10:00:00 10.5 28 Nordeste 40 Nordeste 0 -- -- 82
2020-11-30 09:00:00 9.7 27 Nordeste 34 Nordeste 0 -- -- 86
2020-11-30 08:00:00 9.5 22 Nordeste 31 Nordeste 0 -- -- 87
2020-11-30 07:00:00 9.6 24 Nordeste 33 Nordeste 0 -- -- 86
2020-11-30 06:00:00 9.7 24 Nordeste 33 Nordeste 0 -- -- 87
2020-11-30 05:00:00 9.2 25 Nordeste 33 Nordeste 0.2 -- -- 94
2020-11-30 04:00:00 9.5 22 Nordeste 26 Este 0.4 -- -- 97
2020-11-30 03:00:00 9.6 9 Nordeste 14 Nordeste 0 -- -- 98
2020-11-30 02:00:00 9.6 6 Nordeste 15 Nordeste 0 -- -- 98
2020-11-30 01:00:00 9.5 9 Nordeste 13 Nordeste 0.6 -- -- 98
2020-11-30 00:00:00 9.7 8 Norte 14 Norte 0 -- -- 98
2020-11-29 23:00:00 9.8 9 Norte 14 Norte 4 -- -- 98
2020-11-29 22:00:00 9.9 10 Nordeste 15 Nordeste 7.8 -- -- 96
2020-11-29 21:00:00 10.5 7 Nordeste 34 Nordeste 0.2 -- -- 91
2020-11-29 20:00:00 10.7 26 Nordeste 37 Nordeste 0 -- -- 89
2020-11-29 19:00:00 10.4 28 Nordeste 37 Nordeste 0 -- -- 90
2020-11-29 18:00:00 10.2 24 Nordeste 37 Nordeste 0 -- -- 91
2020-11-29 17:00:00 10.4 25 Nordeste 33 Nordeste 0 -- -- 91
2020-11-29 16:00:00 10.8 24 Nordeste 30 Nordeste 0 -- -- 91
2020-11-29 15:00:00 11.2 18 Nordeste 24 Nordeste 0 -- -- 90
2020-11-29 14:00:00 12.8 12 Sudeste 23 Sudeste 0 -- -- 81
2020-11-29 13:00:00 12.4 9 Sudeste 27 Sudeste 0 -- -- 88
2020-11-29 12:00:00 12.7 11 Sudeste 23 Sudeste 0 -- -- 89
2020-11-29 11:00:00 11.5 14 Sudeste 24 Sudeste 0 -- -- 91
2020-11-29 10:00:00 10.3 12 Sudeste 23 Sudeste 0 -- -- 95
2020-11-29 09:00:00 9.8 12 Este 19 Este 0 -- -- 96
2020-11-29 08:00:00 9.5 9 Este 16 Este 0 -- -- 98
2020-11-29 07:00:00 9.3 10 Este 13 Este 0.4 -- -- 98
2020-11-29 06:00:00 9.3 5 Sudeste 15 Sudeste 4 -- -- 98
2020-11-29 05:00:00 9.5 10 Sudeste 21 Este 1.8 -- -- 95
2020-11-29 04:00:00 9.5 8 Este 14 Este 2.2 -- -- 94
2020-11-29 03:00:00 10.3 9 Este 20 Sudeste 0 -- -- 86
2020-11-29 02:00:00 10.4 12 Este 22 Este 0 -- -- 85
2020-11-29 01:00:00 10.2 13 Este 23 Este 0 -- -- 87
2020-11-29 00:00:00 10.2 12 Sudeste 25 Este 0 -- -- 86
2020-11-28 23:00:00 10.3 13 Sudeste 23 Sudeste 0 -- -- 84
2020-11-28 22:00:00 10.2 12 Este 23 Este 0 -- -- 82
2020-11-28 21:00:00 10 12 Sudeste 21 Sudeste 0 -- -- 83
2020-11-28 20:00:00 9.9 12 Este 20 Sudeste 0 -- -- 83
2020-11-28 19:00:00 9.9 10 Sudeste 17 Sudeste 0 -- -- 82
2020-11-28 18:00:00 10.6 7 Sudeste 17 Sur 0 -- -- 81
2020-11-28 17:00:00 10.9 11 Sur 18 Sudeste 0 -- -- 80
2020-11-28 16:00:00 11.3 8 Sur 18 Sur 0 -- -- 81
2020-11-28 15:00:00 11.6 13 Sur 21 Sur 0 -- -- 80
2020-11-28 14:00:00 11 9 Sudoeste 17 Sudoeste 0 -- -- 84
2020-11-28 13:00:00 10.2 5 Oeste 15 Sudeste 0 -- -- 88
2020-11-28 12:00:00 9.4 7 Sudeste 17 Este 0 -- -- 89
2020-11-28 11:00:00 8.6 10 Sudeste 16 Sudeste 0 -- -- 90
2020-11-28 10:00:00 8.1 4 Sudeste 11 Sudeste 0 -- -- 92
2020-11-28 09:00:00 7.3 8 Sudeste 13 Sudeste 0 -- -- 94
2020-11-28 08:00:00 7.3 5 Este 8 Este 0 -- -- 93
2020-11-28 07:00:00 7.1 6 Norte 9 Norte 0 -- -- 92
2020-11-28 06:00:00 8.1 5 Noroeste 8 Oeste 0 -- -- 90
2020-11-28 05:00:00 8.2 6 Norte 9 Norte 0 -- -- 90
2020-11-28 04:00:00 8 4 Norte 9 Norte 0 -- -- 91
2020-11-28 03:00:00 8.4 3 Norte 14 Norte 0 -- -- 90
2020-11-28 02:00:00 8.6 7 Nordeste 13 Este 0 -- -- 86
2020-11-28 01:00:00 8.5 10 Este 13 Este 0 -- -- 85
2020-11-28 00:00:00 8.6 5 Este 10 Nordeste 0 -- -- 84
2020-11-27 23:00:00 8.7 0 Calma 13 Este 0 -- -- 87
2020-11-27 22:00:00 9.3 7 Este 46 Nordeste 0 -- -- 84
2020-11-27 21:00:00 9.3 32 Nordeste 44 Nordeste 0 -- -- 87
2020-11-27 20:00:00 9.2 22 Este 40 Nordeste 0 -- -- 87
2020-11-27 19:00:00 9.3 26 Nordeste 36 Nordeste 0 -- -- 86
2020-11-27 18:00:00 9.9 21 Nordeste 33 Nordeste 0 -- -- 85
2020-11-27 17:00:00 10.1 26 Nordeste 46 Nordeste 0 -- -- 87
2020-11-27 16:00:00 10.2 23 Nordeste 44 Nordeste 0 -- -- 84
2020-11-27 15:00:00 10.9 34 Nordeste 49 Este 0 -- -- 83
2020-11-27 14:00:00 10.9 32 Nordeste 51 Nordeste 0 -- -- 84
2020-11-27 13:00:00 11.5 35 Nordeste 50 Este 0 -- -- 78
2020-11-27 12:00:00 12 41 Este 62 Nordeste 0 -- -- 77
2020-11-27 11:00:00 11.2 27 Nordeste 46 Nordeste 0 -- -- 85
2020-11-27 10:00:00 9.7 25 Nordeste 35 Este 0.2 -- -- 93
2020-11-27 09:00:00 10.1 23 Nordeste 36 Nordeste 0 -- -- 86
2020-11-27 08:00:00 9.8 29 Nordeste 38 Nordeste 0 -- -- 90
2020-11-27 07:00:00 9.9 27 Nordeste 37 Nordeste 0 -- -- 90
2020-11-27 06:00:00 9.4 23 Nordeste 33 Nordeste 0 -- -- 92
2020-11-27 05:00:00 9.3 14 Nordeste 24 Nordeste 0 -- -- 88
2020-11-27 04:00:00 9.5 14 Nordeste 28 Nordeste 0 -- -- 85
2020-11-27 03:00:00 9.2 15 Nordeste 30 Nordeste 0 -- -- 84
2020-11-27 02:00:00 9 19 Nordeste 29 Nordeste 0 -- -- 84
2020-11-27 01:00:00 8.7 17 Nordeste 27 Nordeste 0 -- -- 88
2020-11-27 00:00:00 8.4 15 Nordeste 19 Nordeste 0 -- -- 88
2020-11-26 23:00:00 8.7 10 Este 17 Este 0 -- -- 85
2020-11-26 22:00:00 8.5 11 Este 20 Este 0 -- -- 88
2020-11-26 21:00:00 8.7 13 Sudeste 21 Este 0 -- -- 89
2020-11-26 20:00:00 8.7 8 Sudeste 16 Este 0 -- -- 92
2020-11-26 19:00:00 9 5 Sudeste 20 Sudeste 0 -- -- 92
2020-11-26 18:00:00 9.2 12 Sudeste 23 Este 0 -- -- 91
2020-11-26 17:00:00 9.9 9 Este 15 Sudeste 0.4 -- -- 92
2020-11-26 16:00:00 10.4 4 Sur 9 Este 0 -- -- 93
2020-11-26 15:00:00 10.3 8 Este 18 Este 0.2 -- -- 93
2020-11-26 14:00:00 9.5 10 Este 24 Este 1 -- -- 94
2020-11-26 13:00:00 9.6 14 Este 24 Este 0.8 -- -- 94
2020-11-26 12:00:00 9.4 15 Este 19 Este 1.2 -- -- 96
2020-11-26 11:00:00 9.2 12 Este 29 Este 1.4 -- -- 93
2020-11-26 10:00:00 9.3 15 Este 29 Este 0.2 -- -- 90
2020-11-26 09:00:00 9.3 12 Sudeste 24 Sudeste 0 -- -- 89
2020-11-26 08:00:00 9 13 Este 23 Este 0.2 -- -- 95
2020-11-26 07:00:00 8.7 8 Sudeste 22 Sudeste 0.6 -- -- 95
2020-11-26 06:00:00 9.4 10 Sudeste 20 Este 0 -- -- 95
2020-11-26 05:00:00 9.6 14 Sudeste 26 Sudeste 0.4 -- -- 95
2020-11-26 04:00:00 9.8 14 Este 34 Este 0 -- -- 93
2020-11-26 03:00:00 9.5 19 Este 32 Este 0.6 -- -- 93
2020-11-26 02:00:00 9.5 17 Sudeste 29 Sudeste 0.4 -- -- 94
2020-11-26 01:00:00 9.9 17 Sudeste 28 Sudeste 0.2 -- -- 89
2020-11-26 00:00:00 10.1 13 Sudeste 23 Sudeste 0 -- -- 90
2020-11-25 23:00:00 10.4 14 Sudeste 26 Sudeste 0 -- -- 90
2020-11-25 22:00:00 10.5 12 Sudeste 21 Sudeste 0 -- -- 91
2020-11-25 21:00:00 10.1 11 Sudeste 29 Sudeste 0 -- -- 97
2020-11-25 20:00:00 10.2 16 Sudeste 29 Sudeste 0 -- -- 96
2020-11-25 19:00:00 10.8 16 Sudeste 31 Sudeste 0 -- -- 90
2020-11-25 18:00:00 11.1 16 Sudeste 28 Sudeste 0 -- -- 89
2020-11-25 17:00:00 11.1 17 Este 28 Este 0 -- -- 91
2020-11-25 16:00:00 11 16 Este 27 Este 0.4 -- -- 94
2020-11-25 15:00:00 10.6 14 Este 27 Este 0.8 -- -- 94
2020-11-25 14:00:00 10.5 13 Sudeste 26 Sudeste 0.8 -- -- 94
2020-11-25 13:00:00 10.4 15 Sudeste 33 Sudeste 1.2 -- -- 92
2020-11-25 12:00:00 11.1 14 Sudeste 23 Sudeste 0 -- -- 80
2020-11-25 11:00:00 10.5 13 Este 21 Este 0 -- -- 85
2020-11-25 10:00:00 9.9 9 Sudeste 24 Este 0 -- -- 88
2020-11-25 09:00:00 9.4 13 Este 25 Este 0 -- -- 89
2020-11-25 08:00:00 9 13 Sudeste 22 Sudeste 0 -- -- 89
2020-11-25 07:00:00 8.6 8 Sudeste 17 Sudeste 0 -- -- 88
2020-11-25 06:00:00 9.2 8 Sudeste 16 Sur 0 -- -- 87
2020-11-25 05:00:00 9.6 9 Sudeste 16 Sudeste 0 -- -- 84
2020-11-25 04:00:00 10 7 Sudeste 11 Sudeste 0 -- -- 82
2020-11-25 03:00:00 10.2 7 Sudeste 15 Sudeste 0 -- -- 82
2020-11-25 02:00:00 10.2 6 Sudeste 11 Sudeste 0 -- -- 81
2020-11-25 01:00:00 10.2 6 Sudeste 10 Sur 0 -- -- 81
2020-11-25 00:00:00 10.4 5 Sudeste 9 Sudeste 0 -- -- 79
2020-11-24 23:00:00 10 6 Sudeste 9 Sudeste 0 -- -- 81
2020-11-24 22:00:00 9.9 4 Sudeste 10 Sudeste 0 -- -- 83
2020-11-24 21:00:00 10 4 Sur 8 Sur 0 -- -- 82
2020-11-24 20:00:00 10.5 6 Sur 10 Sur 0 -- -- 81
2020-11-24 19:00:00 11.3 6 Sur 10 Sur 0 -- -- 79
2020-11-24 18:00:00 11.7 2 Sudeste 9 Sudoeste 0 -- -- 77
2020-11-24 17:00:00 13.2 7 Sudoeste 17 Sudoeste 0 -- -- 70
2020-11-24 16:00:00 14.3 10 Sudoeste 18 Sudoeste 0 -- -- 62
2020-11-24 15:00:00 14 9 Sudoeste 16 Sudoeste 0 -- -- 63
2020-11-24 14:00:00 13.5 8 Sudoeste 14 Sudoeste 0 -- -- 64
2020-11-24 13:00:00 12.6 7 Sudoeste 14 Sudoeste 0 -- -- 67
2020-11-24 12:00:00 12.2 6 Sur 13 Sur 0 -- -- 66
2020-11-24 11:00:00 11.6 7 Sudeste 17 Sudeste 0 -- -- 64
2020-11-24 10:00:00 10.9 6 Sudeste 11 Sudeste 0 -- -- 66
2020-11-24 09:00:00 8.9 7 Este 14 Este 0 -- -- 70
2020-11-24 08:00:00 8.6 6 Este 16 Sudeste 0 -- -- 70
2020-11-24 07:00:00 8.5 9 Este 15 Este 0 -- -- 70
2020-11-24 06:00:00 8.9 8 Este 14 Este 0 -- -- 70
2020-11-24 05:00:00 9.2 8 Sudeste 13 Este 0 -- -- 66
2020-11-24 04:00:00 9.7 8 Sudeste 13 Este 0 -- -- 67
2020-11-24 03:00:00 9.5 9 Este 15 Sudeste 0 -- -- 68
2020-11-24 02:00:00 9.1 6 Este 13 Este 0 -- -- 81
2020-11-24 01:00:00 9.2 6 Este 14 Este 0 -- -- 83
2020-11-24 00:00:00 8.7 10 Este 12 Este 0 -- -- 84
2020-11-23 23:00:00 9.2 9 Este 10 Este 0 -- -- 81
2020-11-23 22:00:00 10.1 5 Este 7 Este 0 -- -- 80
2020-11-23 21:00:00 11.3 6 Este 9 Este 0 -- -- 74
2020-11-23 20:00:00 11.4 6 Sudeste 10 Este 0 -- -- 76
2020-11-23 19:00:00 10.6 9 Este 12 Este 0 -- -- 78
2020-11-23 18:00:00 12.4 5 Norte 9 Norte 0 -- -- 72
2020-11-23 17:00:00 15.5 5 Norte 9 Oeste 0 -- -- 62
2020-11-23 16:00:00 16.6 5 Noroeste 10 Oeste 0 -- -- 57
2020-11-23 15:00:00 16.9 6 Sudoeste 12 Sudoeste 0 -- -- 55
2020-11-23 14:00:00 16.3 4 Oeste 12 Sudoeste 0 -- -- 61
2020-11-23 13:00:00 15.4 5 Sudoeste 9 Sudoeste 0 -- -- 61
2020-11-23 12:00:00 14.2 4 Sudoeste 9 Sudoeste 0 -- -- 65
2020-11-23 11:00:00 12.4 5 Sudeste 11 Sudeste 0 -- -- 69
2020-11-23 10:00:00 12.3 4 Este 21 Nordeste 0 -- -- 66
2020-11-23 09:00:00 9.6 17 Nordeste 20 Nordeste 0 -- -- 75
2020-11-23 08:00:00 8.3 16 Nordeste 21 Nordeste 0 -- -- 79
2020-11-23 07:00:00 7.8 17 Nordeste 19 Nordeste 0 -- -- 81
2020-11-23 06:00:00 8.3 11 Nordeste 15 Nordeste 0 -- -- 74
2020-11-23 05:00:00 8.7 13 Nordeste 18 Nordeste 0 -- -- 73
2020-11-23 04:00:00 8.4 15 Nordeste 17 Este 0 -- -- 81
2020-11-23 03:00:00 8.4 14 Nordeste 17 Nordeste 0 -- -- 84
2020-11-23 02:00:00 8.5 10 Nordeste 13 Nordeste 0 -- -- 82
2020-11-23 01:00:00 8.6 11 Este 13 Este 0 -- -- 81
2020-11-23 00:00:00 8.7 5 Nordeste 10 Este 0 -- -- 81
2020-11-22 23:00:00 9.3 6 Este 10 Nordeste 0 -- -- 79
2020-11-22 22:00:00 9.4 10 Nordeste 11 Este 0 -- -- 78
2020-11-22 21:00:00 9.6 5 Nordeste 6 Nordeste 0 -- -- 73
2020-11-22 20:00:00 9.8 6 Este 11 Este 0 -- -- 74
2020-11-22 19:00:00 10.3 10 Nordeste 12 Nordeste 0 -- -- 79
2020-11-22 18:00:00 12 6 Norte 12 Norte 0 -- -- 71
2020-11-22 17:00:00 15.1 6 Norte 13 Norte 0 -- -- 59
2020-11-22 16:00:00 16.5 6 Noroeste 10 Sudoeste 0 -- -- 55
2020-11-22 15:00:00 16.7 3 Oeste 11 Oeste 0 -- -- 55
2020-11-22 14:00:00 16.3 3 Oeste 11 Noroeste 0 -- -- 54
2020-11-22 13:00:00 15.7 5 Oeste 11 Sudoeste 0 -- -- 55
2020-11-22 12:00:00 14.8 5 Sudoeste 9 Sudoeste 0 -- -- 57
2020-11-22 11:00:00 13.7 3 Sur 14 Este 0 -- -- 58
2020-11-22 10:00:00 11.9 11 Este 16 Este 0 -- -- 66
2020-11-22 09:00:00 8.9 9 Este 15 Este 0 -- -- 74
2020-11-22 08:00:00 7.9 12 Este 18 Este 0 -- -- 75
2020-11-22 07:00:00 9 10 Nordeste 20 Nordeste 0 -- -- 71
2020-11-22 06:00:00 9.7 17 Nordeste 25 Nordeste 0 -- -- 68
2020-11-22 05:00:00 9.4 20 Nordeste 23 Nordeste 0 -- -- 71
2020-11-22 04:00:00 9.6 17 Nordeste 22 Nordeste 0 -- -- 69
2020-11-22 03:00:00 9.8 18 Nordeste 21 Nordeste 0 -- -- 69
2020-11-22 02:00:00 10 17 Nordeste 21 Nordeste 0 -- -- 69
2020-11-22 01:00:00 10.2 19 Nordeste 22 Este 0 -- -- 67
2020-11-22 00:00:00 10.5 19 Nordeste 22 Nordeste 0 -- -- 67
2020-11-21 23:00:00 10.6 19 Nordeste 22 Nordeste 0 -- -- 64
2020-11-21 22:00:00 10.9 17 Nordeste 23 Nordeste 0 -- -- 61
2020-11-21 21:00:00 10.9 18 Nordeste 22 Nordeste 0 -- -- 62
2020-11-21 20:00:00 11 17 Nordeste 20 Nordeste 0 -- -- 61
2020-11-21 19:00:00 11.6 18 Nordeste 22 Nordeste 0 -- -- 58
2020-11-21 18:00:00 12.7 17 Nordeste 22 Nordeste 0 -- -- 53
2020-11-21 17:00:00 15.2 17 Nordeste 23 Nordeste 0 -- -- 47
2020-11-21 16:00:00 16.4 14 Nordeste 24 Nordeste 0 -- -- 44
2020-11-21 15:00:00 16.9 18 Nordeste 22 Nordeste 0 -- -- 40
2020-11-21 14:00:00 17 11 Nordeste 21 Nordeste 0 -- -- 42
2020-11-21 13:00:00 16.1 6 Este 16 Este 0 -- -- 45
2020-11-21 12:00:00 14.9 5 Este 23 Nordeste 0 -- -- 42
2020-11-21 11:00:00 13.3 15 Nordeste 26 Nordeste 0 -- -- 42
2020-11-21 10:00:00 11.7 15 Nordeste 30 Nordeste 0 -- -- 44
2020-11-21 09:00:00 9.7 24 Nordeste 33 Nordeste 0 -- -- 46
2020-11-21 08:00:00 8.3 23 Nordeste 33 Nordeste 0 -- -- 52
2020-11-21 07:00:00 8.6 26 Nordeste 33 Nordeste 0 -- -- 57
2020-11-21 06:00:00 8.7 23 Nordeste 36 Nordeste 0 -- -- 59
2020-11-21 05:00:00 9.8 31 Nordeste 37 Nordeste 0 -- -- 58
2020-11-21 04:00:00 8.8 3 Norte 21 Nordeste 0 -- -- 61
2020-11-21 03:00:00 8.7 9 Nordeste 19 Nordeste 0 -- -- 63
2020-11-21 02:00:00 10.2 16 Nordeste 24 Nordeste 0 -- -- 57
2020-11-21 01:00:00 10.6 18 Este 25 Nordeste 0 -- -- 61
2020-11-21 00:00:00 11.6 18 Nordeste 23 Nordeste 0 -- -- 51
2020-11-20 23:00:00 11.2 12 Nordeste 17 Nordeste 0 -- -- 55
2020-11-20 22:00:00 11 7 Nordeste 23 Nordeste 0 -- -- 55
2020-11-20 21:00:00 13 13 Nordeste 18 Nordeste 0 -- -- 49
2020-11-20 20:00:00 12.4 17 Nordeste 24 Nordeste 0 -- -- 58
2020-11-20 19:00:00 12.7 15 Nordeste 24 Nordeste 0 -- -- 63
2020-11-20 18:00:00 14.1 19 Nordeste 28 Nordeste 0 -- -- 62
2020-11-20 17:00:00 16.7 15 Nordeste 28 Nordeste 0 -- -- 55
2020-11-20 16:00:00 17.5 18 Nordeste 30 Nordeste 0 -- -- 52
2020-11-20 15:00:00 18.1 17 Nordeste 26 Norte 0 -- -- 56
2020-11-20 14:00:00 17.7 14 Nordeste 18 Nordeste 0 -- -- 63
2020-11-20 13:00:00 17.4 13 Nordeste 17 Nordeste 0 -- -- 63
2020-11-20 12:00:00 16.5 3 Sudoeste 10 Nordeste 0 -- -- 68
2020-11-20 11:00:00 15.6 4 Este 22 Nordeste 0 -- -- 66
2020-11-20 10:00:00 14.4 18 Nordeste 26 Nordeste 0 -- -- 69
2020-11-20 09:00:00 12 12 Nordeste 17 Nordeste 0 -- -- 75
2020-11-20 08:00:00 11.4 9 Nordeste 18 Nordeste 0 -- -- 76
2020-11-20 07:00:00 12 14 Nordeste 21 Nordeste 0 -- -- 78
2020-11-20 06:00:00 12.5 9 Nordeste 26 Nordeste 0 -- -- 76
2020-11-20 05:00:00 12.6 10 Nordeste 30 Nordeste 0 -- -- 78
2020-11-20 04:00:00 13.1 11 Nordeste 31 Nordeste 0 -- -- 76
2020-11-20 03:00:00 13.3 27 Nordeste 33 Nordeste 0 -- -- 78
2020-11-20 02:00:00 14.2 26 Nordeste 32 Este 0 -- -- 72
2020-11-20 01:00:00 13.9 22 Nordeste 27 Este 0 -- -- 78
2020-11-20 00:00:00 13.7 20 Nordeste 28 Este 0 -- -- 82
2020-11-19 23:00:00 14.3 22 Nordeste 27 Nordeste 0 -- -- 77
2020-11-19 22:00:00 14.3 14 Nordeste 18 Nordeste 0 -- -- 70
2020-11-19 21:00:00 14.7 16 Nordeste 18 Nordeste 0 -- -- 68
2020-11-19 20:00:00 14.5 11 Nordeste 17 Nordeste 0 -- -- 71
2020-11-19 19:00:00 15.7 13 Nordeste 18 Nordeste 0 -- -- 67
2020-11-19 18:00:00 16.3 13 Nordeste 18 Nordeste 0 -- -- 67
2020-11-19 17:00:00 18.8 9 Nordeste 20 Nordeste 0 -- -- 63
2020-11-19 16:00:00 21 12 Nordeste 26 Nordeste 0 -- -- 52
2020-11-19 15:00:00 21.3 8 Nordeste 22 Norte 0 -- -- 54
2020-11-19 14:00:00 21.6 12 Nordeste 23 Nordeste 0 -- -- 48
2020-11-19 13:00:00 20.8 13 Nordeste 32 Nordeste 0 -- -- 56
2020-11-19 12:00:00 17 16 Nordeste 26 Norte 0 -- -- 68
2020-11-19 11:00:00 15 8 Norte 19 Noroeste 0 -- -- 82
2020-11-19 10:00:00 13.5 7 Nordeste 17 Norte 0 -- -- 85
2020-11-19 09:00:00 12 15 Nordeste 23 Este 0 -- -- 82
2020-11-19 08:00:00 9.6 14 Norte 18 Norte 0 -- -- 92
2020-11-19 07:00:00 9.5 4 Nordeste 17 Nordeste 0 -- -- 92
2020-11-19 06:00:00 9.8 15 Nordeste 20 Nordeste 0 -- -- 94
2020-11-19 05:00:00 9.6 16 Norte 23 Norte 0 -- -- 96
2020-11-19 04:00:00 11.2 13 Nordeste 21 Nordeste 0 -- -- 91
2020-11-19 03:00:00 10.8 17 Nordeste 23 Nordeste -- -- -- 94
2020-11-19 02:00:00 9.9 15 Nordeste 23 Nordeste 0 -- -- 96
2020-11-19 01:00:00 10.6 9 Nordeste 14 Nordeste 0 -- -- 92
2020-11-19 00:00:00 11.6 10 Nordeste 17 Nordeste 0 -- -- 88
2020-11-18 23:00:00 11.5 11 Nordeste 15 Nordeste 0 -- -- 92
2020-11-18 22:00:00 11.5 12 Nordeste 14 Nordeste 0 -- -- 93
2020-11-18 21:00:00 13.1 13 Nordeste 16 Nordeste 0 -- -- 87
2020-11-18 20:00:00 11.9 9 Nordeste 14 Nordeste 0 -- -- 90
2020-11-18 19:00:00 12.9 11 Nordeste 14 Nordeste 0 -- -- 87
2020-11-18 18:00:00 13.3 11 Norte 15 Norte 0 -- -- 87
2020-11-18 17:00:00 16.7 10 Norte 14 Norte 0 -- -- 75
2020-11-18 16:00:00 19.4 6 Norte 11 Norte 0 -- -- 68
2020-11-18 15:00:00 19.3 7 Norte 12 Norte 0 -- -- 69
2020-11-18 14:00:00 19.1 8 Norte 13 Norte 0 -- -- 68
2020-11-18 13:00:00 20 6 Norte 10 Norte 0 -- -- 69
2020-11-18 12:00:00 18.8 2 Sur 9 Nordeste 0 -- -- 75
2020-11-18 11:00:00 17.7 7 Nordeste 12 Nordeste 0 -- -- 73
2020-11-18 10:00:00 15.6 8 Nordeste 14 Nordeste 0 -- -- 80
2020-11-18 09:00:00 12.2 12 Nordeste 15 Nordeste 0 -- -- 92
2020-11-18 08:00:00 10.9 10 Nordeste 11 Nordeste 0 -- -- 94
2020-11-18 07:00:00 13.1 9 Nordeste 15 Este 0 -- -- 85
2020-11-18 06:00:00 14.3 12 Este 16 Este 0 -- -- 80
2020-11-18 05:00:00 13.8 11 Este 14 Este 0 -- -- 77
2020-11-18 04:00:00 12.6 9 Este 11 Este 0 -- -- 80
2020-11-18 03:00:00 12.5 8 Este 11 Este 0 -- -- 78
2020-11-18 02:00:00 12.9 8 Este 10 Este 0 -- -- 72
2020-11-18 01:00:00 14.6 8 Este 13 Este 0 -- -- 69
2020-11-18 00:00:00 14.6 8 Este 14 Este 0 -- -- 77
2020-11-17 23:00:00 14.3 9 Este 16 Sudeste 0 -- -- 83
2020-11-17 22:00:00 14.2 11 Este 15 Este 0 -- -- 88
2020-11-17 21:00:00 12.7 11 Este 12 Nordeste 0 -- -- 88
2020-11-17 20:00:00 13.5 6 Nordeste -- -- 0 -- -- 86
2020-11-17 19:00:00 15 3 Nordeste 6 Norte 0 -- -- 80
2020-11-17 18:00:00 16.5 4 Norte 7 Sudoeste 0 -- -- 78
2020-11-17 17:00:00 19.4 3 Sudoeste 9 Oeste 0 -- -- 64
2020-11-17 16:00:00 19.5 4 Oeste 13 Sudoeste 0 -- -- 69
2020-11-17 15:00:00 19.6 5 Oeste 11 Oeste 0 -- -- 69
2020-11-17 14:00:00 19.1 3 Oeste 9 Oeste 0 -- -- 70
2020-11-17 13:00:00 18.1 5 Oeste 11 Oeste 0 -- -- 78
2020-11-17 12:00:00 16.6 4 Noroeste 8 Sudoeste 0 -- -- 83
2020-11-17 11:00:00 15.8 4 Sur 7 Este 0 -- -- 83
2020-11-17 10:00:00 15.1 7 Nordeste 11 Este 0 -- -- 89
2020-11-17 09:00:00 11.9 10 Este 14 Este 0 -- -- 95
2020-11-17 08:00:00 10.8 10 Este 14 Este 0 -- -- 94
2020-11-17 07:00:00 11.1 9 Este 14 Este 0 -- -- 96
2020-11-17 06:00:00 10.2 8 Este 12 Este 0.2 -- -- 95
2020-11-17 05:00:00 10.4 6 Este 9 Nordeste 0 -- -- 97
2020-11-17 04:00:00 11 5 Este 10 Este 0 -- -- 98
2020-11-17 03:00:00 11.3 7 Este 10 Este 0 -- -- 98
2020-11-17 02:00:00 11.1 5 Este 7 Este 0 -- -- 96
2020-11-17 01:00:00 11.5 6 Este 9 Este 0 -- -- 96
2020-11-17 00:00:00 12.4 6 Este 10 Sudeste 0 -- -- 94
2020-11-16 23:00:00 12.9 7 Este 15 Sudeste 0 -- -- 94
2020-11-16 22:00:00 12.9 8 Este 11 Sudeste 0 -- -- 95
2020-11-16 21:00:00 13.2 4 Sudeste 6 Sudeste 0 -- -- 94
2020-11-16 20:00:00 13.8 4 Sudoeste 5 Sudoeste 0 -- -- 93
2020-11-16 19:00:00 14.2 4 Oeste 6 Sudoeste 0 -- -- 90
2020-11-16 18:00:00 15.8 3 Oeste 10 Sudoeste 0 -- -- 84
2020-11-16 17:00:00 17.7 7 Sudoeste 12 Sudoeste 0 -- -- 77
2020-11-16 16:00:00 18.5 7 Sudoeste 13 Sudoeste 0 -- -- 73
2020-11-16 15:00:00 17.8 8 Sudoeste 13 Sudoeste 0 -- -- 76
2020-11-16 14:00:00 17.3 5 Oeste 15 Sudoeste 0 -- -- 79
2020-11-16 13:00:00 17.2 7 Sudoeste 12 Sur 0 -- -- 81
2020-11-16 12:00:00 16.1 7 Sudoeste 14 Oeste 0 -- -- 87
2020-11-16 11:00:00 15 5 Sudoeste 10 Sudoeste 0 -- -- 93
2020-11-16 10:00:00 13.9 3 Oeste 8 Sudoeste 0 -- -- 99
2020-11-16 09:00:00 13.8 6 Sudoeste 12 Sudoeste 0 -- -- 99
2020-11-16 08:00:00 14 5 Sudoeste 12 Sudoeste 0 -- -- 99
2020-11-16 07:00:00 14.4 5 Oeste 12 Oeste 0 -- -- 98
2020-11-16 06:00:00 14.6 3 Oeste 6 Sudoeste 0 -- -- 98
2020-11-16 05:00:00 14.6 3 Sur 8 Sudeste 0 -- -- 98
2020-11-16 04:00:00 14.7 5 Sudeste 8 Sudeste 0 -- -- 96
2020-11-16 03:00:00 15.1 3 Sur 5 Sur 0 -- -- 96
2020-11-16 02:00:00 15.1 5 Sur 6 Sur 0 -- -- 95
2020-11-16 01:00:00 15.5 3 Sur 8 Noroeste 0 -- -- 93
2020-11-16 00:00:00 15.9 4 Noroeste 8 Sur 0 -- -- 92
2020-11-15 23:00:00 16.1 7 Sur 15 Sur 0 -- -- 90
2020-11-15 22:00:00 16.1 8 Sur 13 Sur 0 -- -- 90
2020-11-15 21:00:00 16.3 7 Sur 10 Sur 0 -- -- 89
2020-11-15 20:00:00 16.7 4 Sur 11 Sur 0 -- -- 88
2020-11-15 19:00:00 16.9 6 Sur 13 Sur 0 -- -- 87
2020-11-15 18:00:00 17.4 5 Sudoeste 16 Oeste 0 -- -- 85
2020-11-15 17:00:00 18.2 8 Sudoeste 25 Sudoeste 0 -- -- 82
2020-11-15 16:00:00 18.3 9 Sur 16 Sudoeste 0 -- -- 82
2020-11-15 15:00:00 17.9 12 Sudoeste 25 Oeste 0 -- -- 82
2020-11-15 14:00:00 17.5 16 Sudoeste 24 Sur 0 -- -- 85
2020-11-15 13:00:00 17.3 13 Sudoeste 20 Sudoeste 0 -- -- 89
2020-11-15 12:00:00 16.2 13 Sudoeste 21 Sudoeste 0 -- -- 92
2020-11-15 11:00:00 15.3 10 Sur 15 Sur 0 -- -- 96
2020-11-15 10:00:00 14.3 6 Sur 14 Sur 0 -- -- 99
2020-11-15 09:00:00 13.8 10 Sur 23 Sur 0 -- -- 99
2020-11-15 08:00:00 13.8 15 Sur 27 Sur 0 -- -- 98
2020-11-15 07:00:00 14 11 Sur 19 Sudeste 0 -- -- 98
2020-11-15 06:00:00 13.9 11 Sur 18 Sur 0 -- -- 97
2020-11-15 05:00:00 13.8 8 Sur 14 Sudeste 0 -- -- 97
2020-11-15 04:00:00 13.9 9 Sudeste 15 Sur 0 -- -- 96
2020-11-15 03:00:00 13.5 10 Sudeste 14 Sudeste 0 -- -- 96
2020-11-15 02:00:00 13.4 8 Sudeste 14 Sur 0 -- -- 96
2020-11-15 01:00:00 13.5 8 Sudeste 12 Sudeste 0 -- -- 95
2020-11-15 00:00:00 13.1 6 Sudeste 14 Sudeste 0 -- -- 98
2020-11-14 23:00:00 13.2 8 Sudeste 12 Sudeste 0 -- -- 99
2020-11-14 22:00:00 13.3 6 Sudeste 9 Sudeste 0 -- -- 99
2020-11-14 21:00:00 13.1 6 Sudeste 8 Sudeste 0 -- -- 99
2020-11-14 20:00:00 13 3 Nordeste 6 Norte 0 -- -- 98
2020-11-14 19:00:00 12.9 3 Nordeste 6 Noroeste 0 -- -- 97
2020-11-14 18:00:00 14 3 Oeste 11 Oeste 0.4 -- -- 97
2020-11-14 17:00:00 14 3 Sur 9 Sur 1.8 -- -- 98
2020-11-14 16:00:00 14 5 Este 11 Sudeste 0 -- -- 98
2020-11-14 15:00:00 13.8 7 Sudeste 12 Este 1.4 -- -- 97
2020-11-14 14:00:00 13.9 6 Sudeste 14 Sur 0.8 -- -- 97
2020-11-14 13:00:00 14 7 Sur 14 Sudeste 1.6 -- -- 96
2020-11-14 12:00:00 14.3 9 Sudeste 15 Este 0 -- -- 93
2020-11-14 11:00:00 13.7 8 Este 14 Sudeste 0 -- -- 95
2020-11-14 10:00:00 13.2 5 Este 12 Sudeste 0 -- -- 96
2020-11-14 09:00:00 12.8 7 Sudeste 18 Este 0 -- -- 95
2020-11-14 08:00:00 12.7 12 Este 18 Sudeste 0 -- -- 95
2020-11-14 07:00:00 12.8 10 Este 18 Este 0.2 -- -- 96
2020-11-14 06:00:00 12.7 9 Sudeste 19 Este 1.6 -- -- 96
2020-11-14 05:00:00 13 8 Sudeste 17 Este 0 -- -- 91
2020-11-14 04:00:00 13.7 8 Sudeste 14 Sudeste 0 -- -- 82
2020-11-14 03:00:00 14.2 6 Sudeste 14 Sudeste 0 -- -- 77
2020-11-14 02:00:00 14.1 8 Este 13 Este 0 -- -- 77
2020-11-14 01:00:00 13.8 8 Este 13 Este 0 -- -- 77
2020-11-14 00:00:00 13.9 7 Sudeste 12 Sudeste 0 -- -- 75
2020-11-13 23:00:00 13.7 6 Este 12 Este 0 -- -- 76
2020-11-13 22:00:00 13.1 11 Este 13 Este 0 -- -- 82
2020-11-13 21:00:00 13.2 10 Nordeste 19 Este 0 -- -- 83
2020-11-13 20:00:00 13.1 12 Este 16 Este 0 -- -- 83
2020-11-13 19:00:00 13 11 Este 14 Este 0 -- -- 85
2020-11-13 18:00:00 13.8 7 Nordeste 10 Nordeste 0 -- -- 82
2020-11-13 17:00:00 14.8 8 Este 14 Nordeste 0 -- -- 79
2020-11-13 16:00:00 14.6 10 Nordeste 16 Nordeste 0 -- -- 77
2020-11-13 15:00:00 15 11 Este 18 Este 0 -- -- 75
2020-11-13 14:00:00 15.3 11 Nordeste 15 Nordeste 0 -- -- 73
2020-11-13 13:00:00 15.8 5 Sur 10 Sur 0 -- -- 70
2020-11-13 12:00:00 15.4 6 Sudeste 16 Este 0 -- -- 70
2020-11-13 11:00:00 13.1 13 Nordeste 16 Nordeste 0 -- -- 73
2020-11-13 10:00:00 12.2 11 Nordeste 14 Este 0 -- -- 75
2020-11-13 09:00:00 10.9 9 Nordeste 13 Este 0 -- -- 79
2020-11-13 08:00:00 10.8 12 Este 14 Este 0 -- -- 77
2020-11-13 07:00:00 12.2 8 Este 13 Este 0 -- -- 69
2020-11-13 06:00:00 11.1 10 Este 15 Este 0 -- -- 73
2020-11-13 05:00:00 9.9 14 Este 15 Este 0 -- -- 81
2020-11-13 04:00:00 10.2 12 Nordeste 13 Nordeste 0 -- -- 80
2020-11-13 03:00:00 11 9 Este 16 Este 0 -- -- 77
2020-11-13 02:00:00 11.3 13 Este 15 Este 0 -- -- 79
2020-11-13 01:00:00 11.7 14 Este 18 Este 0 -- -- 82
2020-11-13 00:00:00 11.6 18 Este 22 Este 0 -- -- 85
2020-11-12 23:00:00 11.4 15 Nordeste 21 Nordeste 0 -- -- 85
2020-11-12 22:00:00 11.4 19 Nordeste 22 Nordeste 0 -- -- 84
2020-11-12 21:00:00 11.6 18 Nordeste 22 Nordeste 0 -- -- 84
2020-11-12 20:00:00 12 18 Nordeste 22 Nordeste 0 -- -- 84
2020-11-12 19:00:00 12.6 18 Nordeste 23 Nordeste 0 -- -- 81
2020-11-12 18:00:00 13.8 18 Nordeste 27 Nordeste 0 -- -- 77
2020-11-12 17:00:00 14.7 19 Nordeste 27 Nordeste 0 -- -- 72
2020-11-12 16:00:00 16.1 17 Nordeste 27 Nordeste 0 -- -- 67
2020-11-12 15:00:00 15.5 18 Nordeste 28 Nordeste 0 -- -- 68
2020-11-12 14:00:00 15.8 18 Nordeste 26 Nordeste 0 -- -- 71
2020-11-12 13:00:00 15 18 Nordeste 24 Nordeste 0 -- -- 71
2020-11-12 12:00:00 14.4 17 Nordeste 24 Nordeste 0 -- -- 72
2020-11-12 11:00:00 13 18 Nordeste 25 Nordeste 0 -- -- 76
2020-11-12 10:00:00 12.4 16 Nordeste 21 Nordeste 0 -- -- 77
2020-11-12 09:00:00 11.3 15 Nordeste 19 Nordeste 0 -- -- 82
2020-11-12 08:00:00 10.8 12 Nordeste 14 Nordeste 0 -- -- 82
2020-11-12 07:00:00 10.8 8 Nordeste 12 Este 0 -- -- 79
2020-11-12 06:00:00 10.9 10 Este 15 Este 0 -- -- 79
2020-11-12 05:00:00 11.3 14 Este 18 Este 0 -- -- 79
2020-11-12 04:00:00 11.4 14 Nordeste 16 Nordeste 0 -- -- 80
2020-11-12 03:00:00 11.1 14 Nordeste 19 Este 0 -- -- 83
2020-11-12 02:00:00 11.2 13 Este 14 Este 0 -- -- 82
2020-11-12 01:00:00 11.9 13 Nordeste 15 Nordeste 0 -- -- 82
2020-11-12 00:00:00 12 12 Nordeste 13 Nordeste 0 -- -- 78
2020-11-11 23:00:00 12.2 12 Este 13 Este 0 -- -- 77
2020-11-11 22:00:00 12.3 9 Este 13 Este 0 -- -- 74
2020-11-11 21:00:00 12.4 11 Este 14 Este 0 -- -- 74
2020-11-11 20:00:00 12.5 12 Este 14 Este 0 -- -- 72
2020-11-11 19:00:00 12.8 10 Nordeste 14 Nordeste 0 -- -- 76
2020-11-11 18:00:00 14 13 Este 16 Nordeste 0 -- -- 72
2020-11-11 17:00:00 16.4 14 Nordeste 18 Nordeste 0 -- -- 64
2020-11-11 16:00:00 17.1 11 Nordeste 17 Nordeste 0 -- -- 61
2020-11-11 15:00:00 17.7 11 Nordeste 18 Nordeste 0 -- -- 61
2020-11-11 14:00:00 17.9 10 Nordeste 16 Nordeste 0 -- -- 60
2020-11-11 13:00:00 17.3 11 Nordeste 18 Nordeste 0 -- -- 62
2020-11-11 12:00:00 17.2 9 Nordeste 17 Nordeste 0 -- -- 60
2020-11-11 11:00:00 16.3 6 Nordeste 12 Nordeste 0 -- -- 62
2020-11-11 10:00:00 14.4 9 Nordeste 11 Nordeste 0 -- -- 68
2020-11-11 09:00:00 11.1 11 Nordeste 14 Este 0 -- -- 79
2020-11-11 08:00:00 9.1 13 Este 15 Este 0 -- -- 83
2020-11-11 07:00:00 9.2 14 Este 16 Este 0 -- -- 83
2020-11-11 06:00:00 9.2 14 Este 18 Este 0 -- -- 83
2020-11-11 05:00:00 9.8 13 Este 16 Este 0 -- -- 78
2020-11-11 04:00:00 10 14 Este 17 Este 0 -- -- 78
2020-11-11 03:00:00 9.9 13 Este 16 Este 0 -- -- 85
2020-11-11 02:00:00 10.1 13 Este 17 Nordeste 0 -- -- 84
2020-11-11 01:00:00 10.8 15 Nordeste 18 Nordeste 0 -- -- 83
2020-11-11 00:00:00 11 17 Nordeste 18 Nordeste 0 -- -- 76
2020-11-10 23:00:00 11.1 13 Nordeste 20 Este 0 -- -- 71
2020-11-10 22:00:00 11.4 18 Este 21 Este 0 -- -- 74
2020-11-10 21:00:00 11.7 16 Nordeste 21 Nordeste 0 -- -- 78
2020-11-10 20:00:00 12.2 18 Nordeste 21 Nordeste 0 -- -- 79
2020-11-10 19:00:00 12.8 16 Nordeste 19 Nordeste 0 -- -- 81
2020-11-10 18:00:00 14.3 10 Nordeste 17 Nordeste 0 -- -- 74
2020-11-10 17:00:00 16.3 10 Nordeste 21 Nordeste 0 -- -- 67
2020-11-10 16:00:00 17.1 13 Nordeste 21 Nordeste 0 -- -- 62
2020-11-10 15:00:00 17 15 Nordeste 25 Nordeste 0 -- -- 68
2020-11-10 14:00:00 16.1 18 Nordeste 23 Este 0 -- -- 75
2020-11-10 13:00:00 16.1 8 Este 17 Nordeste 0 -- -- 75
2020-11-10 12:00:00 15.6 8 Este 14 Este 0 -- -- 74
2020-11-10 11:00:00 14.5 3 Sudoeste 6 Sudoeste 0 -- -- 86
2020-11-10 10:00:00 12 3 Sudeste 10 Nordeste 0 -- -- 90
2020-11-10 09:00:00 9.9 7 Nordeste 10 Nordeste 0.2 -- -- 99
2020-11-10 08:00:00 8.2 6 Norte 14 Este 0 -- -- 97
2020-11-10 07:00:00 9 6 Este 13 Sudeste 0 -- -- 96
2020-11-10 06:00:00 8.5 3 Nordeste 6 Este 0 -- -- 96
2020-11-10 05:00:00 9.4 4 Este 9 Este 0 -- -- 95
2020-11-10 04:00:00 9.7 7 Este 10 Sudeste 0 -- -- 95
2020-11-10 03:00:00 9.9 8 Sudeste 12 Sudeste 0 -- -- 95
2020-11-10 02:00:00 10 8 Sudeste 11 Este 0 -- -- 95
2020-11-10 01:00:00 9.9 7 Sudeste 10 Sudeste 0 -- -- 96
2020-11-10 00:00:00 10.2 4 Este 6 Sudeste 0 -- -- 94
2020-11-09 23:00:00 10.7 0 Calma 4 Sudeste 0 -- -- 94
2020-11-09 22:00:00 11.2 3 Noroeste 9 Noroeste 0 -- -- 91
2020-11-09 21:00:00 11.5 5 Noroeste 9 Noroeste 0 -- -- 91
2020-11-09 20:00:00 11.5 3 Nordeste 9 Noroeste 0 -- -- 90
2020-11-09 19:00:00 12.4 4 Noroeste 8 Noroeste 0 -- -- 85
2020-11-09 18:00:00 13.7 4 Oeste 11 Oeste 0 -- -- 84
2020-11-09 17:00:00 14.1 3 Noroeste 9 Norte 0 -- -- 87
2020-11-09 16:00:00 13.4 4 Norte 7 Norte 0 -- -- 87
2020-11-09 15:00:00 14.2 4 Oeste 12 Oeste 2.4 -- -- 80
2020-11-09 14:00:00 15.1 3 Sudoeste 9 Sudoeste 0.2 -- -- 80
2020-11-09 13:00:00 15.5 5 Sudoeste 13 Sur 0 -- -- 79
2020-11-09 12:00:00 12.9 4 Oeste 9 Oeste 0 -- -- 91
2020-11-09 11:00:00 13.5 5 Sudoeste 11 Oeste 0 -- -- 88
2020-11-09 10:00:00 12.2 5 Norte 9 Norte 0 -- -- 98
2020-11-09 09:00:00 11.3 5 Noroeste 9 Noroeste 0 -- -- 99
2020-11-09 08:00:00 11.1 4 Noroeste 9 Noroeste 0 -- -- 99
2020-11-09 07:00:00 11.3 3 Sudoeste 5 Norte 0 -- -- 98
2020-11-09 06:00:00 12 4 Noroeste 10 Noroeste 0 -- -- 98
2020-11-09 05:00:00 12.3 2 Sudoeste 5 Sudoeste 0 -- -- 99
2020-11-09 04:00:00 12.3 5 Sur 15 Sur 1.6 -- -- 98
2020-11-09 03:00:00 12.4 3 Sur 5 Sur 0 -- -- 98
2020-11-09 02:00:00 12.3 5 Sur 15 Sudoeste 2.8 -- -- 98
2020-11-09 01:00:00 12 3 Sudoeste 15 Este 6.8 -- -- 98
2020-11-09 00:00:00 12.1 10 Sudeste 18 Sudeste 1.4 -- -- 98
2020-11-08 23:00:00 12.3 6 Sudeste 17 Sudeste 3.8 -- -- 97
2020-11-08 22:00:00 12.4 7 Sudeste 23 Sudeste 2 -- -- 97
2020-11-08 21:00:00 12.5 13 Sudeste 23 Este 3.8 -- -- 96
2020-11-08 20:00:00 12.8 3 Este 12 Norte 6.8 -- -- 96
2020-11-08 19:00:00 13.1 8 Norte 18 Sur 3 -- -- 94
2020-11-08 18:00:00 14.9 10 Sudeste 20 Sudeste 0 -- -- 78
2020-11-08 17:00:00 15.2 10 Sudeste 22 Sudeste 0 -- -- 78
2020-11-08 16:00:00 15 13 Sudeste 26 Sur 0 -- -- 80
2020-11-08 15:00:00 14.6 10 Sudeste 22 Sur 0 -- -- 82
2020-11-08 14:00:00 14.5 14 Sur 23 Sur 0 -- -- 81
2020-11-08 13:00:00 13.9 10 Sudeste 27 Sudeste 0 -- -- 86
2020-11-08 12:00:00 13.5 13 Sur 22 Sudeste 0 -- -- 85
2020-11-08 11:00:00 13.3 11 Sudeste 21 Sur 0 -- -- 86
2020-11-08 10:00:00 12.5 14 Sudeste 28 Sudeste 0 -- -- 89
2020-11-08 09:00:00 11.7 15 Sudeste 27 Sudeste 0 -- -- 91
2020-11-08 08:00:00 11.6 15 Este 25 Este 0 -- -- 90
2020-11-08 07:00:00 11.2 13 Sudeste 22 Sudeste 0 -- -- 90
2020-11-08 06:00:00 11.2 13 Sudeste 23 Sudeste 0 -- -- 90
2020-11-08 05:00:00 11.2 12 Sudeste 19 Sudeste 0 -- -- 91
2020-11-08 04:00:00 11.3 10 Sudeste 17 Sudeste 0 -- -- 91
2020-11-08 03:00:00 11.2 11 Sudeste 19 Sudeste 0 -- -- 91
2020-11-08 02:00:00 11.4 13 Sudeste 22 Sudeste 0 -- -- 89
2020-11-08 01:00:00 11.8 13 Sudeste 21 Sudeste 0 -- -- 85
2020-11-08 00:00:00 12.1 12 Sudeste 22 Sudeste 0 -- -- 82
2020-11-07 23:00:00 12.1 12 Sudeste 20 Sudeste 0 -- -- 81
2020-11-07 22:00:00 12.5 12 Sudeste 19 Sudeste 0 -- -- 80
2020-11-07 21:00:00 12.8 12 Sudeste 18 Sudeste 0 -- -- 79
2020-11-07 20:00:00 12.7 11 Sudeste 18 Sudeste 0 -- -- 80
2020-11-07 19:00:00 13.5 8 Sur 15 Sur 0 -- -- 77
2020-11-07 18:00:00 14.4 9 Sur 19 Sur 0 -- -- 74
2020-11-07 17:00:00 15 12 Sur 28 Sudoeste 0 -- -- 72
2020-11-07 16:00:00 16.2 21 Sudoeste 31 Sudoeste 0 -- -- 67
2020-11-07 15:00:00 15.7 20 Sudoeste 33 Sudoeste 0 -- -- 68
2020-11-07 14:00:00 14.3 18 Sudoeste 35 Sudoeste 0 -- -- 78
2020-11-07 13:00:00 13.8 22 Sudoeste 36 Sudoeste 0 -- -- 80
2020-11-07 12:00:00 13.3 18 Sudoeste 31 Sudoeste 0 -- -- 89
2020-11-07 11:00:00 12 18 Sudoeste 28 Sudoeste 0 -- -- 94
2020-11-07 10:00:00 11.4 19 Sudoeste 26 Sudoeste 0 -- -- 97
2020-11-07 09:00:00 11 12 Sudoeste 22 Sur 0 -- -- 96
2020-11-07 08:00:00 11 15 Sur 24 Sur 0 -- -- 94
2020-11-07 07:00:00 11.1 15 Sur 27 Sudoeste 0 -- -- 94
2020-11-07 06:00:00 11.6 12 Sur 23 Sudeste 0 -- -- 91
2020-11-07 05:00:00 11.9 10 Sudeste 22 Este 0 -- -- 93
2020-11-07 04:00:00 11.9 9 Sudeste 19 Sudeste 0.2 -- -- 94
2020-11-07 03:00:00 12 11 Sur 30 Sur 2.4 -- -- 96
2020-11-07 02:00:00 12.5 12 Sur 18 Sur 4.4 -- -- 96
2020-11-07 01:00:00 13.2 10 Sudeste 23 Sur 0.6 -- -- 87
2020-11-07 00:00:00 13.6 14 Sudeste 28 Sur 0.4 -- -- 85
2020-11-06 23:00:00 14.6 10 Sudeste 17 Sudeste 0 -- -- 74
2020-11-06 22:00:00 11.8 6 Norte 14 Este 0 -- -- 87
2020-11-06 21:00:00 12.2 5 Este 18 Sudoeste 0.2 -- -- 86
2020-11-06 20:00:00 13.2 9 Sudoeste 39 Sudoeste 0 -- -- 76
2020-11-06 19:00:00 15.9 23 Sudoeste 45 Sudoeste 0 -- -- 70
2020-11-06 18:00:00 17 24 Sudeste 42 Sudeste 0.4 -- -- 66
2020-11-06 17:00:00 17.5 10 Sur 27 Sudeste 0 -- -- 66
2020-11-06 16:00:00 16.9 13 Nordeste 24 Este 0 -- -- 72
2020-11-06 15:00:00 17.7 12 Este 23 Este 0 -- -- 68
2020-11-06 14:00:00 16.4 5 Este 21 Este 0 -- -- 70
2020-11-06 13:00:00 16.6 14 Este 39 Nordeste 0 -- -- 68
2020-11-06 12:00:00 14.9 28 Este 45 Este 0 -- -- 79
2020-11-06 11:00:00 14 35 Este 49 Este 0 -- -- 83
2020-11-06 10:00:00 12.9 36 Nordeste 59 Nordeste 0 -- -- 87
2020-11-06 09:00:00 13.4 33 Nordeste 48 Nordeste 0 -- -- 81
2020-11-06 08:00:00 12.3 35 Nordeste 45 Nordeste 0 -- -- 88
2020-11-06 07:00:00 12.9 21 Nordeste 27 Nordeste 0.2 -- -- 85
2020-11-06 06:00:00 15.5 15 Sudeste 28 Sudeste 0 -- -- 66
2020-11-06 05:00:00 15.7 12 Este 20 Este 0 -- -- 62
2020-11-06 04:00:00 15.3 9 Sudeste 15 Sudeste 0 -- -- 64
2020-11-06 03:00:00 15.8 14 Sudeste 32 Sudeste 0 -- -- 63
2020-11-06 02:00:00 15.2 18 Sudeste 35 Sudeste 0 -- -- 67
2020-11-06 01:00:00 13.9 15 Este 29 Este 0 -- -- 76
2020-11-06 00:00:00 12.8 21 Nordeste 28 Este 0 -- -- 86
2020-11-05 23:00:00 13.9 24 Este 37 Este 0 -- -- 81
2020-11-05 22:00:00 12 26 Este 39 Nordeste 0 -- -- 88
2020-11-05 21:00:00 10.4 28 Nordeste 40 Nordeste 0 -- -- 94
2020-11-05 20:00:00 10.4 25 Nordeste 31 Nordeste 0 -- -- 94
2020-11-05 19:00:00 10.8 18 Nordeste 29 Nordeste 0 -- -- 93
2020-11-05 18:00:00 11.4 15 Nordeste 31 Este 0 -- -- 91
2020-11-05 17:00:00 11 22 Este 37 Este 2.4 -- -- 96
2020-11-05 16:00:00 11.7 14 Sudeste 32 Sudeste 10.6 -- -- 96
2020-11-05 15:00:00 12 4 Este 21 Nordeste 7.6 -- -- 98
2020-11-05 14:00:00 11.7 16 Nordeste 29 Nordeste 1.6 -- -- 97
2020-11-05 13:00:00 12 21 Nordeste 28 Nordeste 0.2 -- -- 96
2020-11-05 12:00:00 12.2 15 Este 35 Nordeste 0 -- -- 96
2020-11-05 11:00:00 11 27 Este 44 Nordeste 0.4 -- -- 97
2020-11-05 10:00:00 10.3 33 Nordeste 49 Nordeste 0.2 -- -- 97
2020-11-05 09:00:00 10.3 33 Nordeste 50 Nordeste 0.2 -- -- 97
2020-11-05 08:00:00 10.1 32 Este 55 Este 0.4 -- -- 97
2020-11-05 07:00:00 9.7 41 Nordeste 57 Nordeste 0.6 -- -- 97
2020-11-05 06:00:00 9.7 38 Nordeste 51 Nordeste 1.2 -- -- 97
2020-11-05 05:00:00 10 33 Nordeste 44 Este 0.8 -- -- 97
2020-11-05 04:00:00 9.6 33 Nordeste 54 Este 0.4 -- -- 98
2020-11-05 03:00:00 10.1 37 Nordeste 50 Nordeste 0.6 -- -- 98
2020-11-05 02:00:00 10 31 Nordeste 43 Nordeste 0.2 -- -- 98
2020-11-05 01:00:00 10.1 34 Nordeste 45 Nordeste 0 -- -- 98
2020-11-05 00:00:00 10.1 36 Nordeste 50 Este 0 -- -- 98
2020-11-04 23:00:00 9.8 33 Nordeste 53 Nordeste 0.2 -- -- 98
2020-11-04 22:00:00 9.9 43 Nordeste 63 Nordeste 2 -- -- 98
2020-11-04 21:00:00 9.5 37 Nordeste 52 Nordeste 2.6 -- -- 98
2020-11-04 20:00:00 9.7 22 Nordeste 46 Nordeste 3 -- -- 98
2020-11-04 19:00:00 9.2 28 Nordeste 43 Nordeste 0.2 -- -- 98
2020-11-04 18:00:00 8.8 30 Nordeste 46 Nordeste 5.8 -- -- 98
2020-11-04 17:00:00 9.3 30 Nordeste 45 Nordeste 0 -- -- 94
2020-11-04 16:00:00 9.4 31 Nordeste 43 Nordeste 0 -- -- 95
2020-11-04 15:00:00 9.4 33 Nordeste 45 Nordeste 0.2 -- -- 93
2020-11-04 14:00:00 9.2 32 Nordeste 44 Nordeste 0 -- -- 94
2020-11-04 13:00:00 9 28 Nordeste 41 Nordeste 2 -- -- 95
2020-11-04 12:00:00 9.3 27 Nordeste 40 Nordeste 0 -- -- 92
2020-11-04 11:00:00 9.6 24 Nordeste 33 Nordeste 1 -- -- 92
2020-11-04 10:00:00 10 20 Nordeste 31 Nordeste 0.2 -- -- 87
2020-11-04 09:00:00 10.7 14 Norte 30 Nordeste 0 -- -- 83
2020-11-04 08:00:00 10.7 22 Nordeste 29 Nordeste 0 -- -- 85
2020-11-04 07:00:00 11.4 20 Nordeste 28 Nordeste 0 -- -- 83
2020-11-04 06:00:00 11.5 23 Nordeste 30 Nordeste 0 -- -- 82
2020-11-04 05:00:00 12 20 Nordeste 36 Nordeste 0 -- -- 78
2020-11-04 04:00:00 12.1 26 Nordeste 38 Nordeste 0 -- -- 80
2020-11-04 03:00:00 12.6 26 Nordeste 35 Nordeste 0 -- -- 80
2020-11-04 02:00:00 12.5 24 Nordeste 30 Nordeste 0 -- -- 85
2020-11-04 01:00:00 12.6 26 Nordeste 32 Nordeste 0 -- -- 86
2020-11-04 00:00:00 13.6 26 Nordeste 33 Nordeste 0 -- -- 84
2020-11-03 23:00:00 14.4 23 Nordeste 33 Nordeste 0 -- -- 80
2020-11-03 22:00:00 14.8 24 Nordeste 36 Este 0 -- -- 77
2020-11-03 21:00:00 14.8 19 Nordeste 24 Nordeste 0 -- -- 82
2020-11-03 20:00:00 14.9 15 Nordeste 22 Nordeste 0 -- -- 86
2020-11-03 19:00:00 15.9 17 Nordeste 22 Nordeste 0 -- -- 81
2020-11-03 18:00:00 17.1 10 Nordeste 21 Nordeste 0 -- -- 76
2020-11-03 17:00:00 18.5 13 Nordeste 20 Nordeste 0 -- -- 71
2020-11-03 16:00:00 18.3 17 Nordeste 24 Nordeste 0 -- -- 74
2020-11-03 15:00:00 18.8 12 Nordeste 22 Nordeste 0 -- -- 77
2020-11-03 14:00:00 19.1 8 Este 19 Nordeste 0 -- -- 75
2020-11-03 13:00:00 16 3 Noroeste 6 Sudoeste 0 -- -- 90
2020-11-03 12:00:00 15.2 2 Sur 9 Nordeste 0 -- -- 94
2020-11-03 11:00:00 14.6 4 Norte 11 Norte 0 -- -- 96
2020-11-03 10:00:00 14.5 5 Norte 11 Norte 0 -- -- 98
2020-11-03 09:00:00 13.5 5 Noroeste 8 Noroeste 0 -- -- 98
2020-11-03 08:00:00 13.8 2 Oeste 8 Sudoeste 0 -- -- 98
2020-11-03 07:00:00 14 10 Este 17 Nordeste 0.2 -- -- 98
2020-11-03 06:00:00 13.9 2 Norte 8 Sudeste 0 -- -- 98
2020-11-03 05:00:00 13.9 5 Sudeste 8 Sudeste 0 -- -- 97
2020-11-03 04:00:00 13.9 5 Sudeste 9 Sudeste 0 -- -- 96
2020-11-03 03:00:00 14.1 2 Sudeste 8 Oeste 0 -- -- 95
2020-11-03 02:00:00 14.2 3 Oeste 8 Sur 0 -- -- 95
2020-11-03 01:00:00 14.6 5 Sur 9 Sudeste 0 -- -- 95
2020-11-03 00:00:00 14.9 6 Sudeste 9 Sudeste 0 -- -- 94
2020-11-02 23:00:00 15.2 3 Sudeste 5 Sudeste 0 -- -- 92
2020-11-02 22:00:00 15.2 0 Calma 8 Noroeste 0 -- -- 90
2020-11-02 21:00:00 15.5 6 Noroeste 10 Noroeste 0 -- -- 89
2020-11-02 20:00:00 15.8 4 Oeste 9 Noroeste 0 -- -- 89
2020-11-02 19:00:00 16.2 2 Oeste 8 Noroeste 0 -- -- 85
2020-11-02 18:00:00 17 5 Noroeste 12 Noroeste 0 -- -- 84
2020-11-02 17:00:00 17.8 6 Noroeste 14 Noroeste 0 -- -- 80
2020-11-02 16:00:00 19.5 6 Noroeste 10 Noroeste 0 -- -- 73
2020-11-02 15:00:00 20 4 Sudoeste 9 Sudoeste 0 -- -- 69
2020-11-02 14:00:00 19.6 3 Sur 10 Oeste 0 -- -- 72
2020-11-02 13:00:00 18.8 4 Noroeste 10 Oeste 0 -- -- 74
2020-11-02 12:00:00 17.9 3 Oeste 5 Noroeste 0 -- -- 77
2020-11-02 11:00:00 16.4 3 Oeste 6 Oeste 0 -- -- 81
2020-11-02 10:00:00 15.4 4 Sudeste 9 Sudeste 0 -- -- 82
2020-11-02 09:00:00 14.9 3 Este 9 Sudeste 0 -- -- 83
2020-11-02 08:00:00 13.9 6 Este 10 Sudeste 0 -- -- 85
2020-11-02 07:00:00 13.9 5 Sudeste 8 Este 0 -- -- 85
2020-11-02 06:00:00 14 5 Este 10 Sudeste 0 -- -- 82
2020-11-02 05:00:00 14 7 Sudeste 12 Sudeste 0 -- -- 83
2020-11-02 04:00:00 14.5 4 Sudeste 8 Sudeste 0 -- -- 82
2020-11-02 03:00:00 14.9 6 Sudeste 9 Sudeste 0 -- -- 81
2020-11-02 02:00:00 14.9 7 Sudeste 10 Sudeste 0 -- -- 80
2020-11-02 01:00:00 14.9 5 Este 12 Sudeste 0 -- -- 80
2020-11-02 00:00:00 15.2 7 Sudeste 10 Sudeste 0 -- -- 79